createdAt,value
2019-04-14T00:01:44.078Z,99554.42
2019-04-14T00:04:16.125Z,99550.45
2019-04-14T00:06:44.156Z,99553.21
2019-04-14T00:09:14.025Z,99545.73
2019-04-14T00:11:45.876Z,99552.45
2019-04-14T00:14:14.179Z,99541.97
2019-04-14T00:16:42.431Z,99542.81
2019-04-14T00:19:10.799Z,99544.75
2019-04-14T00:21:38.933Z,99540.85
2019-04-14T00:24:07.288Z,99537.80
2019-04-14T00:26:35.632Z,99534.84
2019-04-14T00:29:04.620Z,99531.31
2019-04-14T00:31:32.885Z,99527.41
2019-04-14T00:34:05.140Z,99523.15
2019-04-14T00:36:34.818Z,99527.73
2019-04-14T00:39:03.682Z,99527.87
2019-04-14T00:41:41.354Z,99517.56
2019-04-14T00:44:03.636Z,99531.61
2019-04-14T00:46:38.799Z,99522.50
2019-04-14T00:49:05.599Z,99518.21
2019-04-14T00:51:33.140Z,99527.87
2019-04-14T00:54:00.285Z,99526.07
2019-04-14T00:56:27.937Z,99522.80
2019-04-14T00:58:56.022Z,99518.21
2019-04-14T01:01:24.291Z,99523.96
2019-04-14T01:03:52.559Z,99516.92
2019-04-14T01:06:20.701Z,99516.92
2019-04-14T01:08:48.883Z,99522.84
2019-04-14T01:11:16.028Z,99526.28
2019-04-14T01:13:43.957Z,99520.09
2019-04-14T01:16:15.516Z,99526.14
2019-04-14T01:18:40.768Z,99523.22
2019-04-14T01:21:08.822Z,99519.61
2019-04-14T01:23:36.877Z,99521.93
2019-04-14T01:26:05.034Z,99522.44
2019-04-14T01:28:32.995Z,99529.19
2019-04-14T01:31:01.088Z,99527.89
2019-04-14T01:33:29.307Z,99528.87
2019-04-14T01:35:57.416Z,99525.27
2019-04-14T01:38:25.440Z,99535.45
2019-04-14T01:40:53.160Z,99533.17
2019-04-14T01:43:21.265Z,99529.91
2019-04-14T01:46:00.620Z,99521.05
2019-04-14T01:48:17.211Z,99527.92
2019-04-14T01:50:56.196Z,99529.59
2019-04-14T01:53:35.717Z,99532.22
2019-04-14T01:56:23.281Z,99532.73
2019-04-14T01:58:53.409Z,99533.38
2019-04-14T02:01:23.864Z,99522.88
2019-04-14T02:03:51.937Z,99528.95
2019-04-14T02:06:20.185Z,99528.64
2019-04-14T02:08:48.535Z,99523.39
2019-04-14T02:11:15.882Z,99530.13
2019-04-14T02:13:44.015Z,99525.56
2019-04-14T02:16:21.888Z,99523.77
2019-04-14T02:18:40.572Z,99523.28
2019-04-14T02:21:08.532Z,99522.46
2019-04-14T02:23:36.585Z,99519.39
2019-04-14T02:26:04.688Z,99525.45
2019-04-14T02:28:33.067Z,99519.90
2019-04-14T02:31:12.986Z,99524.84
2019-04-14T02:33:50.369Z,99520.55
2019-04-14T02:36:32.550Z,99518.23
2019-04-14T02:41:32.874Z,99527.91
2019-04-14T02:46:22.007Z,99523.17
2019-04-14T02:48:52.948Z,99530.39
2019-04-14T02:51:19.385Z,99524.47
2019-04-14T02:53:54.435Z,99522.52
2019-04-14T02:56:22.328Z,99527.09
2019-04-14T02:58:52.389Z,99530.39
2019-04-14T03:01:27.544Z,99522.21
2019-04-14T03:03:43.724Z,99524.49
2019-04-14T03:08:45.686Z,99524.49
2019-04-14T03:11:11.681Z,99523.05
2019-04-14T03:13:45.022Z,99529.11
2019-04-14T03:18:44.678Z,99528.49
2019-04-14T03:24:09.341Z,99526.18
2019-04-14T03:26:49.923Z,99532.42
2019-04-14T03:29:36.765Z,99533.05
2019-04-14T03:34:33.799Z,99537.98
2019-04-14T03:39:26.844Z,99536.84
2019-04-14T03:41:45.599Z,99535.19
2019-04-14T03:44:21.288Z,99535.36
2019-04-14T03:49:14.130Z,99538.28
2019-04-14T03:54:03.638Z,99555.36
2019-04-14T03:56:49.005Z,99556.17
2019-04-14T03:59:17.552Z,99553.41
2019-04-14T04:01:45.703Z,99547.80
2019-04-14T04:04:13.943Z,99549.59
2019-04-14T04:06:42.163Z,99547.45
2019-04-14T04:09:10.432Z,99550.42
2019-04-14T04:11:38.923Z,99548.78
2019-04-14T04:14:05.998Z,99547.17
2019-04-14T04:16:35.531Z,99547.84
2019-04-14T04:19:13.011Z,99551.12
2019-04-14T04:21:57.425Z,99546.53
2019-04-14T04:24:43.286Z,99547.54
2019-04-14T04:27:29.030Z,99545.56
2019-04-14T04:30:10.238Z,99543.92
2019-04-14T04:32:44.948Z,99547.05
2019-04-14T04:35:32.565Z,99554.78
2019-04-14T04:38:07.378Z,99553.80
2019-04-14T04:40:35.301Z,99553.80
2019-04-14T04:43:03.716Z,99558.73
2019-04-14T04:45:30.648Z,99561.67
2019-04-14T04:47:57.740Z,99561.50
2019-04-14T04:50:26.003Z,99565.63
2019-04-14T04:52:54.002Z,99567.93
2019-04-14T04:55:22.002Z,99564.63
2019-04-14T04:57:50.176Z,99563.67
2019-04-14T05:00:17.853Z,99566.44
2019-04-14T05:02:46.049Z,99568.24
2019-04-14T05:05:51.396Z,99570.87
2019-04-14T05:08:19.549Z,99569.69
2019-04-14T05:10:48.658Z,99578.06
2019-04-14T05:13:16.163Z,99583.00
2019-04-14T05:15:45.081Z,99585.38
2019-04-14T05:18:13.902Z,99588.64
2019-04-14T05:20:41.955Z,99591.31
2019-04-14T05:23:10.128Z,99587.25
2019-04-14T05:25:37.101Z,99588.87
2019-04-14T05:28:04.788Z,99598.94
2019-04-14T05:30:32.881Z,99591.07
2019-04-14T05:33:00.914Z,99598.53
2019-04-14T05:35:29.097Z,99594.38
2019-04-14T05:37:57.208Z,99592.14
2019-04-14T05:40:25.527Z,99594.77
2019-04-14T05:42:53.684Z,99599.89
2019-04-14T05:45:21.914Z,99599.42
2019-04-14T05:47:50.115Z,99598.45
2019-04-14T05:50:18.149Z,99600.91
2019-04-14T05:52:45.203Z,99603.39
2019-04-14T05:55:13.385Z,99603.06
2019-04-14T05:57:41.640Z,99598.79
2019-04-14T06:00:10.965Z,99600.91
2019-04-14T06:02:38.066Z,99603.40
2019-04-14T06:05:06.442Z,99605.03
2019-04-14T06:07:33.644Z,99605.34
2019-04-14T06:10:00.656Z,99613.25
2019-04-14T06:12:27.577Z,99604.87
2019-04-14T06:14:54.524Z,99609.64
2019-04-14T06:17:23.348Z,99612.58
2019-04-14T06:19:50.326Z,99604.70
2019-04-14T06:22:17.349Z,99601.56
2019-04-14T06:24:44.133Z,99607.66
2019-04-14T06:27:10.984Z,99603.19
2019-04-14T06:29:37.919Z,99603.02
2019-04-14T06:32:11.414Z,99615.55
2019-04-14T06:34:57.251Z,99606.62
2019-04-14T06:37:26.408Z,99614.84
2019-04-14T06:39:55.553Z,99617.15
2019-04-14T06:42:22.402Z,99614.15
2019-04-14T06:44:49.218Z,99613.30
2019-04-14T06:47:16.042Z,99616.07
2019-04-14T06:49:48.801Z,99621.10
2019-04-14T06:52:12.104Z,99620.56
2019-04-14T06:54:40.527Z,99619.48
2019-04-14T06:57:07.653Z,99622.73
2019-04-14T06:59:34.491Z,99626.30
2019-04-14T07:02:01.866Z,99627.28
2019-04-14T07:04:29.089Z,99633.81
2019-04-14T07:06:55.869Z,99635.01
2019-04-14T07:09:22.773Z,99635.76
2019-04-14T07:11:49.719Z,99635.13
2019-04-14T07:14:16.583Z,99639.41
2019-04-14T07:16:43.525Z,99637.70
2019-04-14T07:19:10.565Z,99642.98
2019-04-14T07:21:37.514Z,99644.80
2019-04-14T07:24:04.724Z,99638.36
2019-04-14T07:26:31.754Z,99642.22
2019-04-14T07:28:58.867Z,99646.98
2019-04-14T07:31:44.495Z,99647.45
2019-04-14T07:34:25.696Z,99648.39
2019-04-14T07:36:54.503Z,99644.04
2019-04-14T07:39:31.919Z,99642.87
2019-04-14T07:42:16.033Z,99646.82
2019-04-14T07:45:01.538Z,99648.50
2019-04-14T07:47:36.210Z,99647.69
2019-04-14T07:50:21.861Z,99639.97
2019-04-14T07:52:50.975Z,99641.56
2019-04-14T07:55:19.853Z,99644.18
2019-04-14T07:57:54.893Z,99633.20
2019-04-14T08:00:31.567Z,99646.72
2019-04-14T08:03:04.129Z,99644.48
2019-04-14T08:05:32.884Z,99645.98
2019-04-14T08:07:59.859Z,99650.96
2019-04-14T08:10:26.715Z,99647.77
2019-04-14T08:12:53.696Z,99653.80
2019-04-14T08:15:20.661Z,99659.98
2019-04-14T08:17:47.626Z,99655.18
2019-04-14T08:20:26.416Z,99653.87
2019-04-14T08:22:43.564Z,99664.31
2019-04-14T08:25:10.550Z,99652.23
2019-04-14T08:27:37.531Z,99666.00
2019-04-14T08:30:07.407Z,99661.46
2019-04-14T08:32:34.338Z,99663.50
2019-04-14T08:35:01.253Z,99662.84
2019-04-14T08:37:28.246Z,99670.64
2019-04-14T08:39:55.273Z,99668.85
2019-04-14T08:42:24.586Z,99665.77
2019-04-14T08:44:53.273Z,99665.12
2019-04-14T08:47:24.916Z,99658.27
2019-04-14T08:49:57.063Z,99669.12
2019-04-14T08:52:32.160Z,99662.08
2019-04-14T08:55:06.818Z,99657.91
2019-04-14T08:57:53.049Z,99663.43
2019-04-14T09:00:31.429Z,99653.25
2019-04-14T09:03:06.381Z,99659.33
2019-04-14T09:05:38.597Z,99661.22
2019-04-14T09:08:10.504Z,99663.94
2019-04-14T09:10:39.446Z,99661.59
2019-04-14T09:13:06.419Z,99659.33
2019-04-14T09:15:33.366Z,99654.19
2019-04-14T09:18:00.551Z,99663.63
2019-04-14T09:20:27.502Z,99654.22
2019-04-14T09:22:54.541Z,99665.75
2019-04-14T09:25:21.464Z,99647.66
2019-04-14T09:27:48.786Z,99655.95
2019-04-14T09:30:16.219Z,99649.77
2019-04-14T09:32:43.119Z,99653.13
2019-04-14T09:52:05.433Z,99619.27
2019-04-14T09:54:32.887Z,99620.31
2019-04-14T09:56:59.886Z,99633.97
2019-04-14T09:59:30.072Z,99625.77
2019-04-14T10:01:57.115Z,99634.94
2019-04-14T10:04:24.099Z,99627.40
2019-04-14T10:06:51.531Z,99638.24
2019-04-14T10:09:18.518Z,99637.78
2019-04-14T10:11:48.909Z,99634.30
2019-04-14T10:14:14.309Z,99638.03
2019-04-14T10:16:41.251Z,99620.45
2019-04-14T10:19:08.155Z,99617.42
2019-04-14T10:21:35.010Z,99629.64
2019-04-14T10:24:02.668Z,99625.23
2019-04-14T10:26:29.565Z,99630.94
2019-04-14T10:28:56.489Z,99625.47
2019-04-14T10:31:23.366Z,99626.05
2019-04-14T10:33:52.376Z,99635.36
2019-04-14T10:36:19.482Z,99630.11
2019-04-14T11:08:14.936Z,99605.06
2019-04-14T11:10:41.952Z,99608.47
2019-04-14T11:13:08.873Z,99611.08
2019-04-14T11:15:35.755Z,99614.64
2019-04-14T11:18:03.205Z,99615.93
2019-04-14T11:20:30.196Z,99615.60
2019-04-14T11:23:03.128Z,99617.93
2019-04-14T11:25:25.891Z,99611.05
2019-04-14T11:27:52.923Z,99619.67
2019-04-14T11:30:21.703Z,99611.98
2019-04-14T11:32:51.069Z,99607.06
2019-04-14T11:35:19.751Z,99612.65
2019-04-14T11:37:48.927Z,99604.34
2019-04-14T11:40:17.783Z,99608.56
2019-04-14T11:42:52.159Z,99618.09
2019-04-14T11:45:13.647Z,99606.74
2019-04-14T11:47:41.142Z,99602.44
2019-04-14T11:50:08.459Z,99609.69
2019-04-14T11:52:36.094Z,99605.02
2019-04-14T11:55:04.264Z,99605.41
2019-04-14T11:57:31.206Z,99617.17
2019-04-14T12:00:16.833Z,99611.80
2019-04-14T12:02:49.134Z,99618.55
2019-04-14T12:05:18.298Z,99611.95
2019-04-14T12:07:49.928Z,99605.36
2019-04-14T12:10:17.265Z,99603.41
2019-04-14T12:12:44.182Z,99609.91
2019-04-14T12:15:15.998Z,99611.75
2019-04-14T12:17:40.072Z,99602.99
2019-04-14T12:20:07.414Z,99611.95
2019-04-14T12:22:34.441Z,99612.48
2019-04-14T12:25:01.432Z,99603.17
2019-04-14T12:27:28.287Z,99607.91
2019-04-14T12:29:56.705Z,99595.22
2019-04-14T12:32:24.310Z,99601.95
2019-04-14T12:34:51.054Z,99603.32
2019-04-14T12:37:18.600Z,99611.45
2019-04-14T12:39:46.095Z,99603.53
2019-04-14T12:42:30.270Z,99596.94
2019-04-14T12:45:14.277Z,99596.66
2019-04-14T12:47:58.208Z,99595.59
2019-04-14T12:50:33.242Z,99596.84
2019-04-14T12:53:00.903Z,99585.91
2019-04-14T12:55:27.746Z,99596.00
2019-04-14T12:57:56.661Z,99595.78
2019-04-14T13:00:31.705Z,99584.90
2019-04-14T13:02:58.622Z,99588.95
2019-04-14T13:05:25.562Z,99590.01
2019-04-14T13:07:52.551Z,99603.09
2019-04-14T13:10:21.153Z,99592.25
2019-04-14T13:12:48.120Z,99595.69
2019-04-14T13:15:15.105Z,99590.47
2019-04-14T13:17:41.971Z,99595.06
2019-04-14T13:20:10.722Z,99597.04
2019-04-14T13:22:37.752Z,99595.27
2019-04-14T13:25:05.650Z,99589.33
2019-04-14T13:27:33.179Z,99597.08
2019-04-14T13:30:00.035Z,99589.04
2019-04-14T13:32:35.776Z,99586.19
2019-04-14T13:34:55.620Z,99595.41
2019-04-14T13:37:22.710Z,99588.39
2019-04-14T13:39:49.872Z,99583.92
2019-04-14T13:42:16.768Z,99590.14
2019-04-14T13:44:43.662Z,99593.41
2019-04-14T13:47:10.793Z,99593.69
2019-04-14T13:49:37.691Z,99591.58
2019-04-14T13:52:04.693Z,99592.58
2019-04-14T13:54:31.681Z,99590.06
2019-04-14T13:56:58.548Z,99591.80
2019-04-14T13:59:26.100Z,99590.77
2019-04-14T14:01:53.145Z,99594.03
2019-04-14T14:04:20.250Z,99592.82
2019-04-14T14:06:47.130Z,99601.01
2019-04-14T14:09:14.242Z,99597.64
2019-04-14T14:11:59.389Z,99596.24
2019-04-14T14:14:46.289Z,99594.25
2019-04-14T14:17:16.901Z,99596.12
2019-04-14T14:19:54.610Z,99592.41
2019-04-14T14:22:40.504Z,99598.92
2019-04-14T14:25:16.874Z,99601.77
2019-04-14T14:27:43.929Z,99606.66
2019-04-14T14:30:14.358Z,99609.41
2019-04-14T14:32:41.271Z,99607.23
2019-04-14T14:35:08.215Z,99608.55
2019-04-14T14:37:35.213Z,99613.89
2019-04-14T14:40:03.429Z,99612.08
2019-04-14T14:42:30.405Z,99612.00
2019-04-14T14:45:00.084Z,99615.67
2019-04-14T14:47:28.835Z,99611.20
2019-04-14T14:49:58.988Z,99614.59
2019-04-14T14:52:25.962Z,99609.63
2019-04-14T14:54:52.859Z,99614.89
2019-04-14T14:57:19.819Z,99617.48
2019-04-14T14:59:46.707Z,99608.66
2019-04-14T15:02:14.080Z,99615.81
2019-04-14T15:04:40.955Z,99621.97
2019-04-14T15:07:08.036Z,99610.91
2019-04-14T15:09:35.066Z,99617.14
2019-04-14T15:13:32.813Z,99608.91
2019-04-14T15:16:00.040Z,99624.27
2019-04-14T15:18:26.939Z,99604.67
2019-04-14T15:20:54.167Z,99622.41
2019-04-14T15:23:25.323Z,99614.50
2019-04-14T15:25:50.007Z,99612.47
2019-04-14T15:28:17.017Z,99619.34
2019-04-14T15:30:43.888Z,99615.02
2019-04-14T15:33:10.665Z,99606.96
2019-04-14T15:35:37.817Z,99615.42
2019-04-14T15:38:04.933Z,99624.12
2019-04-14T15:40:31.878Z,99624.98
2019-04-14T15:42:58.911Z,99623.36
2019-04-14T15:45:25.776Z,99622.78
2019-04-14T15:47:53.771Z,99613.14
2019-04-14T15:50:20.775Z,99623.06
2019-04-14T15:52:47.847Z,99629.38
2019-04-14T15:55:16.521Z,99620.53
2019-04-14T15:57:51.566Z,99632.55
2019-04-14T16:00:29.626Z,99630.28
2019-04-14T16:03:15.297Z,99633.73
2019-04-14T16:06:00.674Z,99637.89
2019-04-14T16:08:29.640Z,99653.77
2019-04-14T16:10:58.774Z,99650.52
2019-04-14T16:13:44.177Z,99646.56
2019-04-14T16:16:19.518Z,99650.47
2019-04-14T16:18:53.592Z,99661.05
2019-04-14T16:21:20.505Z,99651.92
2019-04-14T16:23:50.732Z,99656.44
2019-04-14T16:26:21.160Z,99668.72
2019-04-14T16:29:05.002Z,99661.45
2019-04-14T16:31:51.465Z,99665.57
2019-04-14T16:34:20.218Z,99660.41
2019-04-14T16:36:49.108Z,99663.33
2019-04-14T16:39:15.967Z,99669.39
2019-04-14T16:41:43.233Z,99659.94
2019-04-14T16:44:10.377Z,99664.95
2019-04-14T16:46:37.130Z,99657.72
2019-04-14T16:49:04.113Z,99665.34
2019-04-14T16:51:33.130Z,99662.67
2019-04-14T16:54:03.177Z,99666.39
2019-04-14T16:56:49.463Z,99665.65
2019-04-14T16:59:16.482Z,99663.41
2019-04-14T17:01:44.207Z,99673.55
2019-04-14T17:04:11.124Z,99675.27
2019-04-14T17:06:38.183Z,99683.11
2019-04-14T17:09:06.458Z,99681.73
2019-04-14T17:11:33.317Z,99687.37
2019-04-14T17:14:04.693Z,99681.03
2019-04-14T17:16:33.765Z,99673.52
2019-04-14T17:19:02.925Z,99685.47
2019-04-14T17:21:40.705Z,99682.63
2019-04-14T17:24:16.412Z,99683.92
2019-04-14T17:26:56.205Z,99686.25
2019-04-14T17:29:31.176Z,99695.75
2019-04-14T17:32:16.571Z,99695.59
2019-04-14T17:35:02.232Z,99694.40
2019-04-14T17:37:43.376Z,99699.17
2019-04-14T17:40:12.839Z,99707.23
2019-04-14T17:42:48.238Z,99706.41
2019-04-14T17:45:16.860Z,99711.77
2019-04-14T17:47:49.294Z,99713.05
2019-04-14T17:50:24.625Z,99708.55
2019-04-14T17:53:03.068Z,99713.09
2019-04-14T17:55:32.231Z,99717.59
2019-04-14T17:58:01.773Z,99734.39
2019-04-14T18:00:30.846Z,99727.81
2019-04-14T18:03:00.023Z,99736.66
2019-04-14T18:05:29.313Z,99738.70
2019-04-14T18:07:58.201Z,99738.30
2019-04-14T18:10:30.050Z,99746.30
2019-04-14T18:13:07.132Z,99748.33
2019-04-14T18:15:51.437Z,99763.08
2019-04-14T18:18:39.263Z,99763.70
2019-04-14T18:21:08.055Z,99763.88
2019-04-14T18:23:35.079Z,99771.26
2019-04-14T18:26:02.151Z,99777.80
2019-04-14T18:28:43.099Z,99772.66
2019-04-14T18:31:12.357Z,99783.10
2019-04-14T18:33:47.286Z,99782.88
2019-04-14T18:36:19.167Z,99789.63
2019-04-14T18:39:05.282Z,99787.98
2019-04-14T18:41:40.296Z,99783.05
2019-04-14T18:44:09.186Z,99796.31
2019-04-14T18:46:46.967Z,99795.05
2019-04-14T18:49:18.603Z,99798.49
2019-04-14T18:51:54.184Z,99800.73
2019-04-14T18:54:25.911Z,99794.58
2019-04-14T18:56:57.657Z,99794.33
2019-04-14T18:59:29.369Z,99793.88
2019-04-14T19:01:57.067Z,99792.04
2019-04-14T19:04:24.296Z,99800.80
2019-04-14T19:06:51.389Z,99804.87
2019-04-14T19:09:18.850Z,99805.64
2019-04-14T19:11:51.073Z,99811.55
2019-04-14T19:14:20.040Z,99818.07
2019-04-14T19:16:57.925Z,99817.42
2019-04-14T19:19:24.962Z,99824.92
2019-04-14T19:21:51.944Z,99820.56
2019-04-14T19:24:19.070Z,99821.33
2019-04-14T19:26:46.226Z,99813.14
2019-04-14T19:29:13.236Z,99825.72
2019-04-14T19:31:40.456Z,99824.03
2019-04-14T19:34:07.464Z,99817.91
2019-04-14T19:36:34.315Z,99821.13
2019-04-14T19:39:01.383Z,99827.45
2019-04-14T19:41:28.414Z,99832.53
2019-04-14T19:43:55.297Z,99830.80
2019-04-14T19:46:22.297Z,99830.31
2019-04-14T19:48:49.201Z,99823.92
2019-04-14T19:51:16.044Z,99831.98
2019-04-14T19:53:43.101Z,99835.22
2019-04-14T19:56:10.079Z,99832.13
2019-04-14T19:58:37.177Z,99831.69
2019-04-14T20:01:07.155Z,99838.99
2019-04-14T20:03:34.112Z,99834.44
2019-04-14T20:06:01.016Z,99843.13
2019-04-14T20:08:31.065Z,99843.34
2019-04-14T20:10:58.278Z,99847.38
2019-04-14T20:13:27.408Z,99849.01
2019-04-14T20:15:57.834Z,99844.66
2019-04-14T20:18:43.345Z,99853.14
2019-04-14T20:21:15.353Z,99848.86
2019-04-14T20:23:47.770Z,99845.77
2019-04-14T20:26:22.840Z,99851.23
2019-04-14T20:28:52.073Z,99846.75
2019-04-14T20:31:33.043Z,99852.00
2019-04-14T20:34:00.258Z,99856.00
2019-04-14T20:36:27.345Z,99854.36
2019-04-14T20:38:54.435Z,99858.77
2019-04-14T20:41:21.206Z,99859.50
2019-04-14T20:43:48.117Z,99865.98
2019-04-14T20:46:15.242Z,99870.45
2019-04-14T20:48:42.266Z,99867.16
2019-04-14T20:51:10.255Z,99867.16
2019-04-14T20:53:37.282Z,99867.91
2019-04-14T20:56:06.428Z,99875.20
2019-04-14T20:58:33.624Z,99868.28
2019-04-14T21:01:01.311Z,99869.82
2019-04-14T21:03:42.703Z,99875.03
2019-04-14T21:06:27.343Z,99872.58
2019-04-14T21:08:58.722Z,99868.82
2019-04-14T21:11:29.438Z,99874.02
2019-04-14T21:14:01.057Z,99873.10
2019-04-14T21:16:32.994Z,99884.96
2019-04-14T21:19:04.622Z,99874.80
2019-04-14T21:21:37.037Z,99879.02
2019-04-14T21:24:05.998Z,99884.12
2019-04-14T21:26:51.440Z,99885.48
2019-04-14T21:29:26.537Z,99893.25
2019-04-14T21:31:55.260Z,99891.31
2019-04-14T21:34:40.442Z,99894.86
2019-04-14T21:37:26.064Z,99886.97
2019-04-14T21:40:11.461Z,99884.22
2019-04-14T21:42:39.687Z,99897.16
2019-04-14T21:45:07.289Z,99890.39
2019-04-14T21:47:34.114Z,99892.56
2019-04-14T21:50:01.308Z,99892.91
2019-04-14T21:52:33.218Z,99890.78
2019-04-14T21:55:02.362Z,99899.72
2019-04-14T21:57:34.061Z,99900.75
2019-04-14T22:00:19.650Z,99894.06
2019-04-14T22:03:05.199Z,99900.03
2019-04-14T22:05:44.818Z,99897.92
2019-04-14T22:08:25.212Z,99897.45
2019-04-14T22:11:07.500Z,99898.27
2019-04-14T22:13:34.924Z,99902.54
2019-04-14T22:16:02.060Z,99898.61
2019-04-14T22:18:29.069Z,99906.25
2019-04-14T22:20:57.347Z,99905.88
2019-04-14T22:23:24.443Z,99910.67
2019-04-14T22:25:51.461Z,99904.92
2019-04-14T22:28:18.344Z,99917.16
2019-04-14T22:30:45.346Z,99920.42
2019-04-14T22:33:12.167Z,99916.30
2019-04-14T22:35:39.274Z,99917.49
2019-04-14T22:38:06.313Z,99920.29
2019-04-14T22:40:33.249Z,99919.86
2019-04-14T22:43:00.330Z,99922.70
2019-04-14T22:45:28.537Z,99923.38
2019-04-14T22:47:55.429Z,99923.56
2019-04-14T22:50:22.644Z,99932.19
2019-04-14T22:52:49.707Z,99932.37
2019-04-14T22:55:16.548Z,99934.83
2019-04-14T22:57:43.426Z,99936.83
2019-04-14T23:00:18.798Z,99934.83
2019-04-14T23:02:57.001Z,99934.34
2019-04-14T23:05:26.021Z,99935.48
2019-04-14T23:07:55.220Z,99940.77
2019-04-14T23:10:41.160Z,99929.06
2019-04-14T23:13:09.810Z,99931.22
2019-04-14T23:15:55.423Z,99937.48
2019-04-14T23:18:24.454Z,99935.70
2019-04-14T23:20:53.358Z,99933.51
2019-04-14T23:23:37.311Z,99937.31
2019-04-14T23:26:04.862Z,99933.04
2019-04-14T23:28:31.824Z,99937.81
2019-04-14T23:31:01.708Z,99934.19
2019-04-14T23:33:28.964Z,99937.16
2019-04-14T23:35:55.834Z,99939.47
2019-04-14T23:38:22.886Z,99931.55
2019-04-14T23:40:49.876Z,99934.69
2019-04-14T23:43:16.763Z,99935.83
2019-04-14T23:45:43.780Z,99932.52
2019-04-14T23:48:10.941Z,99935.97
2019-04-14T23:50:37.728Z,99934.52
2019-04-14T23:53:04.641Z,99934.83
2019-04-14T23:55:31.697Z,99935.48
2019-04-14T23:57:58.581Z,99936.12
